PWSweather.com
Personal Weather Stations
Station Observations
WISCHPK61
Green Bay Schmitt Park, Green Bay, WI 54311

Green Bay Schmitt ParkGreen Bay, WI 54311

Lat: 44.514277, Lon: -87.935067

Elevation: 735

Station Type: Acu Rite Pro Weather Center model 02032C

http://greenbayweathercam.com

High Low Average
Temperature 10.0°F-12.2°C -1.7°F-18.7°C 4.5°F-15.3°C
Dew Point 9.8°F-12.3°C -1.9°F-18.8°C 4.1°F-15.5°C
Winds 3.5 mph 5.6 kmh Calm Calm 1.0 mph NW1.6 kmh NW
Wind Gusts 6.9 mph11.1 kmh -- 1.0 mph1.6 kmh
Humidity 99% 95% 98%
Pressure 29.98 in1015.2 mb 29.03 in983.1 mb -
Precipitation 0.00 in0.0 mm - -
Hour Temp Dew Point Humidity Winds Wind Gusts Pressure Precip Precip Rate Daily Precip Total
12:00 AM 11.1°F-11.6°C 10.6°F-11.9°C 98% 1.2 mph NNW1.9 kmh NNW 3.5 mph5.6 kmh 28.99 in981.7 mb - 0.00 in0.0 mm 0.00 in0.0 mm
01:00 AM 9.7°F-12.4°C 9.5°F-12.5°C 99% Calm Calm -- 29.03 in983.1 mb - 0.00 in0.0 mm 0.00 in0.0 mm
02:00 AM 10.0°F-12.2°C 9.8°F-12.3°C 99% 1.2 mph W1.9 kmh W 1.2 mph1.9 kmh 29.09 in985.1 mb - 0.00 in0.0 mm 0.00 in0.0 mm
03:00 AM 10.0°F-12.2°C 9.5°F-12.5°C 98% Calm Calm -- 29.14 in986.8 mb - 0.00 in0.0 mm 0.00 in0.0 mm
04:00 AM 10.0°F-12.2°C 9.8°F-12.3°C 99% 1.2 mph NW1.9 kmh NW 2.3 mph3.7 kmh 29.19 in988.5 mb - 0.00 in0.0 mm 0.00 in0.0 mm
05:00 AM 8.4°F-13.1°C 8.2°F-13.2°C 99% 1.2 mph WNW1.9 kmh WNW 2.3 mph3.7 kmh 29.25 in990.5 mb - 0.00 in0.0 mm 0.00 in0.0 mm
06:00 AM 5.5°F-14.7°C 4.8°F-15.1°C 97% Calm Calm -- 29.30 in992.2 mb - 0.00 in0.0 mm 0.00 in0.0 mm
07:00 AM 3.7°F-15.7°C 3.5°F-15.8°C 99% Calm Calm -- 29.36 in994.2 mb - 0.00 in0.0 mm 0.00 in0.0 mm
08:00 AM 3.2°F-16.0°C 2.8°F-16.2°C 98% Calm Calm -- 29.40 in995.6 mb - 0.00 in0.0 mm 0.00 in0.0 mm
09:00 AM 3.0°F-16.1°C 2.8°F-16.2°C 99% 3.5 mph WNW5.6 kmh WNW 3.5 mph5.6 kmh 29.45 in997.3 mb - 0.00 in0.0 mm 0.00 in0.0 mm
10:00 AM 3.4°F-15.9°C 3.2°F-16.0°C 99% 2.3 mph NNW3.7 kmh NNW 6.9 mph11.1 kmh 29.51 in999.3 mb - 0.00 in0.0 mm 0.00 in0.0 mm
11:00 AM 3.5°F-15.8°C 3.3°F-15.9°C 99% Calm Calm -- 29.54 in1000.3 mb - 0.00 in0.0 mm 0.00 in0.0 mm
12:00 PM 3.7°F-15.7°C 2.6°F-16.3°C 95% 2.3 mph NW3.7 kmh NW 2.3 mph3.7 kmh 29.58 in1001.7 mb - 0.00 in0.0 mm 0.00 in0.0 mm
01:00 PM 5.4°F-14.8°C 5.2°F-14.9°C 99% 3.5 mph WNW5.6 kmh WNW 2.3 mph3.7 kmh 29.61 in1002.7 mb - 0.00 in0.0 mm 0.00 in0.0 mm
02:00 PM 6.8°F-14.0°C 6.6°F-14.1°C 99% Calm Calm 1.2 mph1.9 kmh 29.63 in1003.4 mb - 0.00 in0.0 mm 0.00 in0.0 mm
03:00 PM 6.7°F-14.1°C 6.2°F-14.3°C 98% Calm Calm 5.8 mph9.3 kmh 29.66 in1004.4 mb - 0.00 in0.0 mm 0.00 in0.0 mm
04:00 PM 5.7°F-14.6°C 5.5°F-14.7°C 99% 3.5 mph NW5.6 kmh NW 4.6 mph7.4 kmh 29.69 in1005.4 mb - 0.00 in0.0 mm 0.00 in0.0 mm
05:00 PM 4.3°F-15.4°C 4.1°F-15.5°C 99% Calm Calm -- 29.73 in1006.8 mb - 0.00 in0.0 mm 0.00 in0.0 mm
06:00 PM 3.3°F-15.9°C 3.1°F-16.1°C 99% Calm Calm -- 29.75 in1007.5 mb - 0.00 in0.0 mm 0.00 in0.0 mm
07:00 PM 2.1°F-16.6°C 1.2°F-17.1°C 96% Calm Calm -- 29.79 in1008.8 mb - 0.00 in0.0 mm 0.00 in0.0 mm
08:00 PM 1.2°F-17.1°C 1.0°F-17.2°C 99% Calm Calm -- 29.85 in1010.8 mb - 0.00 in0.0 mm 0.00 in0.0 mm
09:00 PM 0.5°F-17.5°C 0.3°F-17.6°C 99% Calm Calm -- 29.88 in1011.9 mb - 0.00 in0.0 mm 0.00 in0.0 mm
10:00 PM -0.4°F-18.0°C -0.8°F-18.2°C 98% Calm Calm -- 29.91 in1012.9 mb - 0.00 in0.0 mm 0.00 in0.0 mm
11:00 PM -1.1°F-18.4°C -1.5°F-18.6°C 98% Calm Calm -- 29.94 in1013.9 mb - 0.00 in0.0 mm 0.00 in0.0 mm